createdAt,value
2022-10-26T00:00:24.137Z,970.83
2022-10-26T00:10:27.196Z,970.75
2022-10-26T00:20:25.510Z,970.72
2022-10-26T00:30:24.702Z,970.84
2022-10-26T00:40:24.846Z,970.78
2022-10-26T00:50:25.071Z,970.68
2022-10-26T01:00:25.229Z,970.70
2022-10-26T01:10:25.447Z,970.73
2022-10-26T01:20:25.606Z,970.76
2022-10-26T01:30:25.809Z,970.68
2022-10-26T01:40:25.946Z,970.57
2022-10-26T01:50:26.146Z,970.25
2022-10-26T02:00:26.299Z,970.31
2022-10-26T02:10:26.536Z,970.27
2022-10-26T02:20:26.695Z,970.35
2022-10-26T02:30:27.095Z,970.35
2022-10-26T02:40:27.023Z,970.27
2022-10-26T02:50:27.251Z,970.52
2022-10-26T03:00:27.406Z,970.52
2022-10-26T03:10:27.651Z,970.69
2022-10-26T03:20:27.791Z,970.67
2022-10-26T03:30:28.005Z,970.82
2022-10-26T03:40:28.156Z,971.05
2022-10-26T03:50:28.372Z,971.49
2022-10-26T04:00:28.531Z,971.63
2022-10-26T04:10:28.739Z,971.61
2022-10-26T04:20:28.901Z,971.25
2022-10-26T04:30:29.096Z,970.72
2022-10-26T04:40:29.253Z,970.83
2022-10-26T04:50:29.464Z,971.07
2022-10-26T05:00:29.624Z,971.13
2022-10-26T05:10:29.813Z,971.07
2022-10-26T05:20:29.974Z,971.22
2022-10-26T05:30:30.200Z,971.06
2022-10-26T05:40:30.352Z,971.16
2022-10-26T05:50:30.580Z,971.07
2022-10-26T06:00:30.747Z,971.11
2022-10-26T06:10:30.970Z,971.35
2022-10-26T06:20:31.125Z,971.44
2022-10-26T06:30:31.347Z,971.58
2022-10-26T06:40:31.567Z,971.54
2022-10-26T06:50:31.676Z,971.66
2022-10-26T07:10:32.124Z,972.33
2022-10-26T07:20:32.163Z,972.49
2022-10-26T07:30:32.397Z,972.45
2022-10-26T07:40:32.620Z,972.67
2022-10-26T07:50:32.715Z,972.66
2022-10-26T08:00:32.972Z,972.72
2022-10-26T08:10:33.076Z,972.69
2022-10-26T08:20:33.253Z,972.76
2022-10-26T08:40:33.619Z,972.90
2022-10-26T08:50:33.868Z,973.05
2022-10-26T09:00:34.002Z,973.13
2022-10-26T09:10:34.216Z,973.26
2022-10-26T09:20:34.353Z,973.33
2022-10-26T09:30:34.588Z,973.25
2022-10-26T09:40:35.036Z,973.35
2022-10-26T09:50:35.027Z,973.48
2022-10-26T10:10:35.243Z,973.69
2022-10-26T10:20:35.374Z,973.75
2022-10-26T10:30:35.583Z,973.74
2022-10-26T10:40:35.723Z,973.89
2022-10-26T10:50:36.081Z,973.81
2022-10-26T11:00:36.115Z,973.91
2022-10-26T11:10:36.327Z,974.02
2022-10-26T11:20:36.592Z,973.83
2022-10-26T11:30:36.684Z,974.18
2022-10-26T11:40:37.146Z,974.20
2022-10-26T11:50:37.135Z,974.16
2022-10-26T12:00:38.312Z,974.30
2022-10-26T12:10:37.774Z,974.24
2022-10-26T12:20:37.583Z,974.36
2022-10-26T12:30:37.811Z,974.25
2022-10-26T12:40:37.984Z,974.29
2022-10-26T12:50:38.500Z,974.32
2022-10-26T13:00:38.332Z,974.46
2022-10-26T13:10:38.563Z,974.52
2022-10-26T13:20:39.001Z,974.58
2022-10-26T13:30:38.892Z,974.55
2022-10-26T13:40:39.067Z,974.63
2022-10-26T13:50:39.549Z,974.57
2022-10-26T14:00:39.387Z,974.72
2022-10-26T14:10:39.617Z,974.66
2022-10-26T14:20:39.769Z,974.69
2022-10-26T14:30:41.052Z,974.79
2022-10-26T14:40:40.060Z,974.90
2022-10-26T14:50:40.298Z,975.00
2022-10-26T15:00:40.615Z,975.03
2022-10-26T15:10:40.700Z,975.17
2022-10-26T15:20:41.111Z,975.25
2022-10-26T15:30:41.105Z,975.36
2022-10-26T15:40:41.368Z,975.42
2022-10-26T15:50:41.657Z,975.50
2022-10-26T16:00:41.473Z,975.63
2022-10-26T16:10:41.906Z,975.80
2022-10-26T16:20:41.841Z,975.90
2022-10-26T16:30:42.202Z,975.93
2022-10-26T16:40:42.140Z,976.11
2022-10-26T16:50:42.407Z,976.21
2022-10-26T17:00:42.665Z,976.21
2022-10-26T17:10:42.963Z,976.50
2022-10-26T17:20:42.798Z,976.58
2022-10-26T17:30:42.992Z,976.62
2022-10-26T17:40:43.306Z,976.84
2022-10-26T17:50:43.289Z,977.00
2022-10-26T18:00:47.858Z,977.10
2022-10-26T18:10:44.635Z,977.18
2022-10-26T18:20:43.673Z,977.24
2022-10-26T18:30:43.902Z,977.23
2022-10-26T18:40:47.984Z,977.35
2022-10-26T18:50:45.236Z,977.40
2022-10-26T19:00:44.408Z,977.57
2022-10-26T19:10:44.559Z,977.61
2022-10-26T19:20:47.303Z,977.71
2022-10-26T19:30:44.846Z,977.73
2022-10-26T19:40:44.982Z,977.75
2022-10-26T19:50:45.207Z,977.85
2022-10-26T20:00:45.528Z,977.87
2022-10-26T20:10:45.613Z,977.96
2022-10-26T20:20:45.767Z,977.98
2022-10-26T20:30:45.978Z,978.05
2022-10-26T20:40:46.322Z,978.08
2022-10-26T20:50:46.295Z,978.21
2022-10-26T21:00:46.518Z,978.20
2022-10-26T21:10:46.661Z,978.28
2022-10-26T21:20:46.839Z,978.29
2022-10-26T21:30:47.118Z,978.31
2022-10-26T21:40:47.157Z,978.43
2022-10-26T21:50:47.388Z,978.53
2022-10-26T22:00:47.592Z,978.49
2022-10-26T22:10:47.681Z,978.54
2022-10-26T22:20:47.877Z,978.58
2022-10-26T22:30:47.971Z,978.61
2022-10-26T22:40:48.431Z,978.66
2022-10-26T22:50:48.319Z,978.62
2022-10-26T23:00:48.505Z,978.62
2022-10-26T23:10:48.699Z,978.61
2022-10-26T23:20:48.855Z,978.53
2022-10-26T23:30:49.073Z,978.60
2022-10-26T23:40:49.359Z,978.62
2022-10-26T23:50:49.784Z,978.62
